Time;durP1;ratioP1;P1;durP2;ratioP2;P2;SDS_P1;SDS_P2;PMS_P1;PMS_P2;Temp;Humidity;BMP_temperature;BMP_pressure;BME280_temperature;BME280_humidity;BME280_pressure;Samples;Min_cycle;Max_cycle;Signal;HPM_P1;HPM_P2
2022/11/09 00:02:04;;;;;;;1.95;0.93;;;;;;;15.89;74.42;99942.16;5004867;28;20054;-63
2022/11/09 00:04:30;;;;;;;1.95;0.80;;;;;;;15.71;75.28;99944.34;4975214;28;20037;-63
2022/11/09 00:06:55;;;;;;;1.30;0.82;;;;;;;15.85;74.88;99940.69;5010184;28;20030;-63
2022/11/09 00:09:21;;;;;;;1.85;0.88;;;;;;;15.98;74.50;99931.56;5003565;28;20038;-64
2022/11/09 00:11:47;;;;;;;1.75;0.88;;;;;;;16.12;74.20;99931.38;5007824;28;20026;-64
2022/11/09 00:14:14;;;;;;;3.90;1.00;;;;;;;16.00;74.54;99933.88;4992189;28;20060;-65
2022/11/09 00:16:40;;;;;;;2.47;1.13;;;;;;;16.00;74.36;99936.59;5003234;28;20049;-64
2022/11/09 00:19:05;;;;;;;1.92;1.08;;;;;;;16.02;74.73;99940.44;5003893;28;20038;-64
2022/11/09 00:21:30;;;;;;;6.88;1.00;;;;;;;16.10;74.73;99941.13;5009003;28;20034;-64
2022/11/09 00:23:56;;;;;;;1.27;0.95;;;;;;;16.12;74.21;99927.91;5007316;28;20035;-64
2022/11/09 00:26:22;;;;;;;1.40;0.63;;;;;;;16.10;74.04;99924.81;5004270;28;20857;-65
2022/11/09 00:28:48;;;;;;;1.38;0.80;;;;;;;16.18;73.92;99937.88;4992965;28;20038;-65
2022/11/09 00:31:17;;;;;;;1.95;1.30;;;;;;;16.00;74.65;99926.50;5009130;28;20038;-64
2022/11/09 00:33:50;;;;;;;1.27;0.80;;;;;;;16.05;74.92;99923.31;4993613;28;20026;-64
2022/11/09 00:36:15;;;;;;;2.45;0.77;;;;;;;15.99;74.68;99924.19;5004289;28;20040;-64
2022/11/09 00:38:41;;;;;;;0.90;0.60;;;;;;;16.17;74.35;99922.78;5001740;28;20041;-65
2022/11/09 00:41:09;;;;;;;2.08;0.80;;;;;;;16.17;73.92;99925.50;4991201;28;20072;-64
2022/11/09 00:43:36;;;;;;;1.17;0.90;;;;;;;16.04;74.58;99910.16;4984987;28;20034;-64
2022/11/09 00:46:01;;;;;;;1.92;1.10;;;;;;;15.84;75.60;99920.91;5005019;28;20075;-64
2022/11/09 00:48:27;;;;;;;1.02;0.60;;;;;;;15.96;75.75;99911.44;4991456;28;20041;-64
2022/11/09 00:50:54;;;;;;;1.10;0.80;;;;;;;15.88;75.40;99904.56;4976400;28;20030;-65
2022/11/09 00:53:20;;;;;;;1.50;0.70;;;;;;;15.95;75.13;99899.78;5005914;28;20031;-64
2022/11/09 00:56:09;;;;;;;1.23;0.88;;;;;;;15.90;75.56;99894.81;4992279;28;20030;-64
2022/11/09 00:58:37;;;;;;;1.33;0.75;;;;;;;15.95;75.30;99905.22;4990593;28;20037;-64
2022/11/09 01:01:12;;;;;;;6.45;0.73;;;;;;;15.88;75.88;99910.75;4992204;28;20084;-64
2022/11/09 01:03:40;;;;;;;1.05;0.65;;;;;;;15.92;75.96;99900.63;4991278;28;20091;-64
2022/11/09 01:06:07;;;;;;;1.50;0.70;;;;;;;15.99;75.39;99905.16;4991764;28;20493;-64
2022/11/09 01:08:33;;;;;;;1.98;0.70;;;;;;;16.02;75.20;99904.38;5000269;28;20072;-63
2022/11/09 01:11:04;;;;;;;2.47;0.80;;;;;;;16.04;75.01;99905.50;5005688;28;20113;-64
2022/11/09 01:13:30;;;;;;;2.10;1.15;;;;;;;16.03;75.26;99903.16;5008356;28;20057;-63
2022/11/09 01:15:56;;;;;;;3.35;1.00;;;;;;;16.07;74.99;99896.53;5005677;28;20050;-64
2022/11/09 01:18:21;;;;;;;1.02;0.68;;;;;;;16.05;74.85;99904.31;5003710;28;20041;-64
2022/11/09 01:20:50;;;;;;;1.38;0.80;;;;;;;16.06;75.19;99899.66;4992590;28;20057;-64
2022/11/09 01:23:18;;;;;;;2.10;0.70;;;;;;;16.03;75.15;99909.38;4992912;28;20486;-64
2022/11/09 01:25:43;;;;;;;3.85;0.90;;;;;;;15.87;75.86;99895.63;4990335;28;20042;-64
2022/11/09 01:28:09;;;;;;;1.13;0.80;;;;;;;15.90;76.11;99896.75;5006613;28;20038;-64
2022/11/09 01:30:37;;;;;;;1.73;0.82;;;;;;;15.85;76.36;99889.09;5007194;28;20034;-64
2022/11/09 01:33:08;;;;;;;0.77;0.77;;;;;;;15.82;75.95;99898.81;5009818;28;20061;-64
2022/11/09 01:35:35;;;;;;;0.90;0.60;;;;;;;16.07;75.50;99890.31;4986025;28;20057;-64
2022/11/09 01:38:02;;;;;;;4.53;1.08;;;;;;;15.81;76.33;99883.72;4992538;28;20300;-64
2022/11/09 01:40:29;;;;;;;2.42;0.70;;;;;;;15.85;76.79;99875.50;5009711;28;20026;-64
2022/11/09 01:42:54;;;;;;;1.27;0.80;;;;;;;15.66;77.15;99876.16;4992183;28;20022;-64
2022/11/09 01:45:21;;;;;;;2.10;0.95;;;;;;;15.75;76.99;99879.91;4987960;28;20446;-64
2022/11/09 01:47:51;;;;;;;1.48;0.90;;;;;;;15.71;77.13;99884.63;4986146;28;20141;-64
2022/11/09 01:50:25;;;;;;;1.63;0.90;;;;;;;15.77;77.12;99880.28;5004157;28;20061;-64
2022/11/09 01:52:50;;;;;;;0.60;0.60;;;;;;;15.87;76.75;99882.03;5008553;28;20046;-64
2022/11/09 01:55:18;;;;;;;1.15;0.75;;;;;;;15.84;76.75;99882.09;4972274;28;20121;-64
2022/11/09 01:57:50;;;;;;;0.93;0.73;;;;;;;15.77;77.07;99882.22;4991524;28;20391;-63
2022/11/09 02:00:17;;;;;;;1.48;0.90;;;;;;;15.56;77.84;99871.63;4990365;28;20034;-64
2022/11/09 02:02:54;;;;;;;1.98;0.85;;;;;;;15.72;77.34;99871.78;4990472;28;20479;-64
2022/11/09 02:05:24;;;;;;;1.50;0.73;;;;;;;15.67;77.57;99867.59;4974011;28;20517;-64
2022/11/09 02:07:52;;;;;;;1.15;1.05;;;;;;;15.84;77.12;99877.44;4978275;28;20026;-64
2022/11/09 02:10:44;;;;;;;0.63;0.63;;;;;;;15.69;77.44;99872.63;5009908;28;20045;-64
2022/11/09 02:13:12;;;;;;;1.88;1.00;;;;;;;15.69;77.70;99865.25;5007634;28;20038;-64
2022/11/09 02:15:38;;;;;;;2.90;0.95;;;;;;;15.70;77.72;99869.47;4992824;28;20069;-63
2022/11/09 02:18:04;;;;;;;1.85;0.70;;;;;;;15.67;77.86;99866.81;4995538;28;20061;-64
2022/11/09 02:20:29;;;;;;;0.47;0.47;;;;;;;15.77;77.81;99874.84;4976689;28;20447;-64
2022/11/09 02:22:57;;;;;;;2.85;1.00;;;;;;;15.82;77.77;99871.66;4980648;28;20113;-64
2022/11/09 02:25:22;;;;;;;2.67;0.80;;;;;;;15.90;77.31;99866.91;4995144;28;20057;-64
2022/11/09 02:27:49;;;;;;;1.08;0.82;;;;;;;15.85;77.07;99862.69;4991029;28;20056;-65
2022/11/09 02:30:18;;;;;;;1.63;1.00;;;;;;;15.81;77.68;99858.50;4995818;28;20120;-64
2022/11/09 02:33:03;;;;;;;1.35;0.75;;;;;;;15.81;77.45;99859.28;4995528;28;20022;-64
2022/11/09 02:35:29;;;;;;;1.55;0.80;;;;;;;16.00;77.04;99855.13;4929779;29;20520;-64
2022/11/09 02:37:54;;;;;;;3.10;0.80;;;;;;;15.92;77.20;99861.81;4917762;29;20222;-64
2022/11/09 02:40:28;;;;;;;1.40;0.80;;;;;;;16.05;76.95;99866.28;4917806;29;20099;-64
2022/11/09 02:42:55;;;;;;;4.05;1.48;;;;;;;16.11;76.23;99869.28;4916919;29;20127;-64
2022/11/09 02:45:21;;;;;;;1.25;0.80;;;;;;;16.14;76.04;99869.25;4916028;29;20851;-65
2022/11/09 02:47:46;;;;;;;1.15;0.80;;;;;;;16.23;75.47;99860.59;4922417;29;20060;-64
2022/11/09 02:50:12;;;;;;;2.15;0.98;;;;;;;16.18;75.70;99856.38;4933053;29;20035;-64
2022/11/09 02:52:37;;;;;;;1.77;0.80;;;;;;;16.19;75.64;99866.06;4916969;29;20040;-64
2022/11/09 02:55:03;;;;;;;1.42;0.50;;;;;;;16.00;75.83;99864.03;4911607;29;20111;-64
2022/11/09 02:57:28;;;;;;;1.25;0.68;;;;;;;16.12;76.17;99871.59;4914801;29;20500;-63
2022/11/09 02:59:54;;;;;;;2.97;0.60;;;;;;;16.05;76.44;99871.72;4917030;29;20044;-64
2022/11/09 03:02:20;;;;;;;1.45;0.57;;;;;;;16.09;76.93;99869.72;4916222;29;20031;-64
2022/11/09 03:04:45;;;;;;;1.58;0.70;;;;;;;16.12;76.40;99877.03;4930886;29;20115;-64
2022/11/09 03:07:11;;;;;;;1.88;0.77;;;;;;;16.14;76.14;99866.53;4920673;29;20704;-64
2022/11/09 03:09:38;;;;;;;1.13;0.90;;;;;;;16.10;76.61;99875.94;4926645;29;20036;-64
2022/11/09 03:12:27;;;;;;;1.20;0.90;;;;;;;16.02;77.05;99872.53;4923722;28;20046;-64
2022/11/09 03:14:49;;;;;;;2.40;1.17;;;;;;;16.10;76.55;99873.22;4994066;28;20030;-64
2022/11/09 03:17:16;;;;;;;1.35;0.77;;;;;;;16.08;77.13;99870.91;4995355;28;20124;-64
2022/11/09 03:19:42;;;;;;;1.70;0.88;;;;;;;16.09;76.67;99872.44;5018631;23;20041;-72
2022/11/09 03:22:07;;;;;;;1.80;0.57;;;;;;;16.10;76.96;99868.53;5030212;28;20448;-71
2022/11/09 03:24:33;;;;;;;1.30;0.85;;;;;;;16.13;76.72;99872.38;5026204;28;20108;-71
2022/11/09 03:26:58;;;;;;;0.90;0.80;;;;;;;16.16;76.51;99871.56;5029212;28;20164;-72
2022/11/09 03:29:24;;;;;;;3.10;1.05;;;;;;;15.94;77.37;99871.09;5028352;28;20061;-72
2022/11/09 03:31:50;;;;;;;1.35;0.70;;;;;;;15.96;77.57;99868.75;5028906;28;20438;-72
2022/11/09 03:34:15;;;;;;;2.72;1.08;;;;;;;15.92;77.78;99878.91;5007397;28;20091;-71
2022/11/09 03:36:40;;;;;;;0.43;0.43;;;;;;;15.99;77.61;99872.56;5029209;28;20486;-71
2022/11/09 03:39:06;;;;;;;2.55;1.00;;;;;;;15.83;78.20;99872.44;5015854;28;20022;-71
2022/11/09 03:41:32;;;;;;;2.58;1.00;;;;;;;15.83;78.85;99873.19;5013527;28;20084;-71
2022/11/09 03:43:57;;;;;;;4.72;1.05;;;;;;;15.94;78.23;99864.91;5029664;28;20021;-71
2022/11/09 03:46:23;;;;;;;1.15;0.80;;;;;;;15.97;78.26;99877.66;5029239;28;20374;-72
2022/11/09 03:48:48;;;;;;;2.28;0.68;;;;;;;15.92;78.47;99878.91;5025631;28;20075;-71
2022/11/09 03:51:13;;;;;;;2.35;0.80;;;;;;;16.03;77.91;99865.91;5027369;28;20049;-72
2022/11/09 03:53:39;;;;;;;0.85;0.77;;;;;;;15.91;78.46;99869.19;5022407;28;20065;-71
2022/11/09 03:56:04;;;;;;;1.58;0.90;;;;;;;16.04;78.08;99862.03;5016940;28;20060;-71
2022/11/09 03:58:30;;;;;;;1.55;0.75;;;;;;;15.90;78.50;99856.03;5028321;28;20385;-71
2022/11/09 04:00:56;;;;;;;1.42;0.70;;;;;;;15.96;78.40;99863.31;5031964;28;20029;-71
2022/11/09 04:03:21;;;;;;;1.30;0.85;;;;;;;15.89;78.63;99866.13;5022975;28;20076;-71
2022/11/09 04:05:46;;;;;;;1.15;0.80;;;;;;;15.82;79.24;99868.94;5023161;28;20079;-72
2022/11/09 04:08:12;;;;;;;0.68;0.63;;;;;;;15.90;78.94;99870.38;5028849;28;20033;-72
2022/11/09 04:10:37;;;;;;;2.35;0.82;;;;;;;15.99;78.54;99861.72;5022008;28;20434;-71
2022/11/09 04:13:02;;;;;;;4.18;0.50;;;;;;;16.03;78.62;99876.00;5022156;28;20037;-71
2022/11/09 04:15:28;;;;;;;1.05;0.70;;;;;;;15.80;79.39;99860.44;5013005;28;20038;-71
2022/11/09 04:17:58;;;;;;;0.77;0.63;;;;;;;15.86;79.44;99861.50;5010702;28;20497;-71
2022/11/09 04:20:25;;;;;;;1.30;0.93;;;;;;;15.93;79.04;99864.13;5025463;28;20038;-71
2022/11/09 04:23:02;;;;;;;1.98;0.95;;;;;;;15.99;79.13;99864.44;5025547;28;20025;-71
2022/11/09 04:25:31;;;;;;;0.88;0.57;;;;;;;16.09;78.22;99866.22;5015997;28;20029;-71
2022/11/09 04:27:58;;;;;;;2.92;0.60;;;;;;;15.94;79.04;99854.81;5027598;28;20033;-71
2022/11/09 04:30:26;;;;;;;1.33;0.70;;;;;;;16.08;78.29;99861.97;5026909;28;20513;-72
2022/11/09 04:32:56;;;;;;;1.27;0.80;;;;;;;16.05;78.73;99855.41;5019653;28;20033;-71
2022/11/09 04:35:21;;;;;;;1.42;0.70;;;;;;;15.83;79.33;99862.31;5021532;28;20033;-71
2022/11/09 04:38:04;;;;;;;2.08;0.90;;;;;;;15.86;79.96;99864.22;5027809;28;20091;-69
2022/11/09 04:40:34;;;;;;;0.88;0.68;;;;;;;15.92;79.58;99868.03;5017441;28;20042;-71
2022/11/09 04:43:04;;;;;;;3.50;0.70;;;;;;;16.00;79.45;99861.31;5021193;28;20033;-71
2022/11/09 04:45:29;;;;;;;1.90;0.52;;;;;;;16.06;79.14;99858.91;5021852;28;20028;-71
2022/11/09 04:48:01;;;;;;;3.17;0.90;;;;;;;15.98;79.30;99871.06;5018001;28;20088;-71
2022/11/09 04:50:27;;;;;;;1.30;0.50;;;;;;;15.78;79.96;99857.34;5012064;28;20041;-71
2022/11/09 04:52:53;;;;;;;1.50;0.77;;;;;;;15.81;80.25;99855.78;5020330;28;20033;-71
2022/11/09 04:55:18;;;;;;;1.23;0.68;;;;;;;15.81;80.35;99859.28;5017449;28;20040;-70
2022/11/09 04:57:43;;;;;;;2.10;0.77;;;;;;;15.81;79.90;99858.50;5022179;28;20700;-71
2022/11/09 05:00:12;;;;;;;0.50;0.50;;;;;;;15.75;80.75;99851.97;5023053;28;20052;-72
2022/11/09 05:02:38;;;;;;;1.58;0.77;;;;;;;15.91;80.12;99844.75;5012391;28;20030;-72
2022/11/09 05:05:03;;;;;;;1.63;0.70;;;;;;;16.00;80.01;99853.19;5013589;28;20460;-71
2022/11/09 05:07:29;;;;;;;1.42;0.80;;;;;;;16.00;79.22;99858.59;5020768;28;20120;-71
2022/11/09 05:09:54;;;;;;;2.97;0.70;;;;;;;15.95;79.28;99869.91;5020809;28;20034;-70
2022/11/09 05:12:40;;;;;;;0.85;0.80;;;;;;;16.16;78.60;99861.44;5026262;28;20512;-71
2022/11/09 05:15:06;;;;;;;1.85;0.80;;;;;;;16.00;78.83;99869.47;5014416;28;20053;-70
2022/11/09 05:17:31;;;;;;;0.93;0.65;;;;;;;15.69;80.37;99878.81;5010092;28;20124;-71
2022/11/09 05:19:56;;;;;;;4.00;0.90;;;;;;;15.82;80.06;99882.53;5019329;28;20148;-71
2022/11/09 05:25:06;;;;;;;1.60;0.77;;;;;;;16.01;79.53;99873.72;4995494;28;20080;-71
2022/11/09 05:27:32;;;;;;;1.20;0.70;;;;;;;15.86;79.35;99875.09;5011881;28;20080;-71
2022/11/09 05:29:57;;;;;;;1.38;0.60;;;;;;;15.94;79.38;99876.53;5024818;28;20171;-72
2022/11/09 05:32:22;;;;;;;1.17;0.60;;;;;;;15.76;79.83;99873.28;5019112;28;20049;-71
2022/11/09 05:34:48;;;;;;;1.00;0.60;;;;;;;15.90;79.33;99875.03;5006600;28;20043;-71
2022/11/09 05:37:13;;;;;;;2.05;0.82;;;;;;;16.00;79.08;99876.84;5021704;28;20038;-71
2022/11/09 05:39:38;;;;;;;0.90;0.73;;;;;;;15.81;79.81;99877.50;5009427;28;20041;-71
2022/11/09 05:42:04;;;;;;;1.08;0.98;;;;;;;15.61;80.72;99869.22;5017356;28;20057;-71
2022/11/09 05:44:29;;;;;;;1.52;0.70;;;;;;;15.64;80.64;99873.81;5028332;28;20627;-71
2022/11/09 05:46:55;;;;;;;1.08;0.57;;;;;;;15.77;80.37;99863.97;5028579;28;20471;-72
2022/11/09 05:49:23;;;;;;;2.95;0.75;;;;;;;15.85;80.15;99873.53;5010313;28;20577;-72
2022/11/09 05:51:48;;;;;;;0.68;0.50;;;;;;;15.96;79.28;99865.25;5013940;28;20132;-72
2022/11/09 05:54:34;;;;;;;2.15;0.68;;;;;;;15.86;79.33;99872.38;5017953;28;20498;-71
2022/11/09 05:57:00;;;;;;;3.40;1.10;;;;;;;15.94;79.10;99868.38;4968372;28;20125;-72
2022/11/09 05:59:26;;;;;;;1.10;0.77;;;;;;;15.84;79.65;99868.53;4985470;28;20590;-71
2022/11/09 06:01:51;;;;;;;3.80;1.20;;;;;;;15.82;79.52;99866.22;4983284;28;20195;-71
2022/11/09 06:04:17;;;;;;;2.00;0.60;;;;;;;15.89;78.96;99874.25;4987028;28;20043;-71
2022/11/09 06:06:42;;;;;;;1.77;0.60;;;;;;;15.91;79.20;99863.75;4989051;28;20050;-71
2022/11/09 06:09:07;;;;;;;0.80;0.70;;;;;;;15.91;79.24;99868.44;4988572;28;20108;-72
2022/11/09 06:11:33;;;;;;;1.75;0.80;;;;;;;15.84;79.48;99860.38;4985414;28;20085;-71
2022/11/09 06:13:58;;;;;;;1.73;1.00;;;;;;;15.86;79.42;99858.81;4986878;28;20054;-71
2022/11/09 06:16:24;;;;;;;0.77;0.60;;;;;;;15.79;79.95;99869.78;4982739;28;20462;-71
2022/11/09 06:18:50;;;;;;;1.65;0.82;;;;;;;15.91;79.34;99865.72;4986154;28;20034;-71
2022/11/09 06:21:15;;;;;;;0.60;0.60;;;;;;;15.91;78.79;99863.00;4981318;28;20145;-69
2022/11/09 06:23:41;;;;;;;1.38;0.80;;;;;;;16.04;78.60;99870.19;4985361;28;19940;-69
2022/11/09 06:26:09;;;;;;;3.35;0.73;;;;;;;15.85;79.64;99868.09;4966429;28;20026;-70
2022/11/09 06:28:36;;;;;;;1.88;1.00;;;;;;;15.91;79.22;99882.03;4970814;28;20065;-69
2022/11/09 06:31:04;;;;;;;1.90;0.73;;;;;;;16.01;78.71;99881.84;4983033;28;20460;-72
2022/11/09 06:33:31;;;;;;;0.77;0.77;;;;;;;15.71;79.93;99890.03;4991687;28;20061;-72
2022/11/09 06:35:57;;;;;;;0.63;0.50;;;;;;;15.71;80.26;99881.91;5025216;28;20037;-71
2022/11/09 06:38:25;;;;;;;0.80;0.80;;;;;;;15.82;79.80;99896.09;5018922;28;20406;-71
2022/11/09 06:40:51;;;;;;;1.02;0.70;;;;;;;15.88;79.00;99896.41;5027823;28;20049;-71
2022/11/09 06:43:16;;;;;;;1.38;0.93;;;;;;;15.65;80.16;99901.75;5024024;28;20421;-70
2022/11/09 06:45:42;;;;;;;0.95;0.65;;;;;;;15.53;80.84;99905.78;5013521;28;20044;-72
2022/11/09 06:48:09;;;;;;;2.67;0.73;;;;;;;15.70;80.40;99898.59;5020308;28;20456;-71
2022/11/09 06:50:34;;;;;;;2.97;0.60;;;;;;;15.82;80.04;99917.03;5022780;28;20069;-70
2022/11/09 06:53:03;;;;;;;1.42;0.57;;;;;;;15.71;80.02;99919.91;5018139;28;20061;-71
2022/11/09 06:55:29;;;;;;;1.13;0.95;;;;;;;15.72;80.18;99916.00;5020631;28;20034;-71
2022/11/09 06:57:55;;;;;;;1.92;1.05;;;;;;;15.69;80.24;99922.25;5024494;28;20030;-71
2022/11/09 07:00:22;;;;;;;0.98;0.73;;;;;;;15.66;80.52;99930.44;5024822;28;20319;-71
2022/11/09 07:02:47;;;;;;;0.80;0.65;;;;;;;15.42;81.84;99926.84;5017459;28;20471;-71
2022/11/09 07:05:13;;;;;;;2.35;0.93;;;;;;;15.53;81.25;99937.56;5029189;28;20041;-73
2022/11/09 07:07:38;;;;;;;1.15;0.70;;;;;;;15.68;81.04;99934.28;5023147;28;20324;-73
2022/11/09 07:10:04;;;;;;;1.17;0.80;;;;;;;15.76;80.52;99943.88;5019017;28;20050;-73
2022/11/09 07:12:31;;;;;;;2.53;0.75;;;;;;;15.82;80.38;99944.97;5016525;28;20034;-73
2022/11/09 07:14:56;;;;;;;1.70;1.00;;;;;;;15.80;80.13;99939.19;5013610;28;20034;-72
2022/11/09 07:17:22;;;;;;;0.90;0.68;;;;;;;16.00;79.77;99942.81;5022339;28;20048;-72
2022/11/09 07:19:47;;;;;;;4.53;0.88;;;;;;;15.90;80.36;99946.44;5016717;28;20053;-72
2022/11/09 07:22:12;;;;;;;4.80;1.13;;;;;;;15.90;80.23;99945.66;5022485;28;20034;-72
2022/11/09 07:24:38;;;;;;;0.70;0.70;;;;;;;15.85;80.43;99949.56;5025385;28;20033;-72
2022/11/09 07:27:03;;;;;;;4.40;0.88;;;;;;;15.94;80.20;99946.38;5026293;28;20120;-72
2022/11/09 07:29:28;;;;;;;2.78;0.93;;;;;;;15.95;80.00;99939.78;5030399;28;20033;-73
2022/11/09 07:31:54;;;;;;;2.65;0.68;;;;;;;15.97;79.98;99943.59;5021118;28;20104;-72
2022/11/09 07:34:19;;;;;;;0.73;0.60;;;;;;;15.80;80.40;99949.25;5022882;28;20033;-72
2022/11/09 07:36:45;;;;;;;0.52;0.50;;;;;;;15.77;80.70;99937.28;5026242;28;20022;-72
2022/11/09 07:39:10;;;;;;;1.80;0.90;;;;;;;15.78;81.08;99938.03;5023153;28;20038;-72
2022/11/09 07:41:36;;;;;;;1.02;0.52;;;;;;;15.78;81.02;99941.53;5024369;28;20041;-72
2022/11/09 07:44:01;;;;;;;0.75;0.70;;;;;;;15.72;81.59;99948.59;5019603;28;20052;-72
2022/11/09 07:46:27;;;;;;;0.75;0.70;;;;;;;15.78;81.64;99955.09;5025447;28;20466;-72
2022/11/09 07:48:52;;;;;;;1.35;0.63;;;;;;;16.01;80.63;99951.72;5017104;28;20045;-72
2022/11/09 07:51:18;;;;;;;1.10;0.50;;;;;;;16.03;80.35;99952.84;5019406;28;20053;-72
2022/11/09 07:53:43;;;;;;;0.50;0.50;;;;;;;15.90;80.95;99953.78;5027780;28;20144;-72
2022/11/09 07:56:08;;;;;;;1.00;0.60;;;;;;;15.92;80.49;99957.66;5024637;28;20549;-71
2022/11/09 07:58:35;;;;;;;0.82;0.60;;;;;;;15.90;81.23;99957.28;5019753;28;20061;-72
2022/11/09 08:01:06;;;;;;;3.33;0.60;;;;;;;15.91;81.60;99960.78;5015247;28;20119;-72
2022/11/09 08:03:31;;;;;;;0.47;0.37;;;;;;;15.96;80.58;99954.88;5020579;28;20509;-72
2022/11/09 08:05:57;;;;;;;1.02;0.73;;;;;;;16.05;80.80;99966.00;5015349;28;20296;-71
2022/11/09 08:08:22;;;;;;;0.73;0.60;;;;;;;16.18;80.69;99961.59;5013198;28;20570;-71
2022/11/09 08:10:51;;;;;;;0.60;0.60;;;;;;;16.09;80.62;99964.78;5019427;28;20454;-72
2022/11/09 08:13:17;;;;;;;0.68;0.63;;;;;;;16.19;80.72;99968.53;5018247;28;20084;-71
2022/11/09 08:15:43;;;;;;;1.50;0.60;;;;;;;16.28;80.44;99968.81;5021096;28;20465;-71
2022/11/09 08:18:14;;;;;;;1.00;0.68;;;;;;;16.36;79.88;99977.63;5021827;28;20095;-71
2022/11/09 08:20:40;;;;;;;;;;;;;;;16.32;79.71;99966.81;5024312;28;20057;-71
2022/11/09 08:23:05;;;;;;;0.68;0.60;;;;;;;16.36;79.83;99978.41;5023608;28;20586;-71
2022/11/09 08:25:33;;;;;;;2.10;0.70;;;;;;;16.24;79.57;99971.56;5027033;28;20030;-71
2022/11/09 08:27:58;;;;;;;1.27;0.60;;;;;;;16.43;79.35;99974.81;5023367;28;20064;-71
2022/11/09 08:30:25;;;;;;;0.98;0.63;;;;;;;16.28;79.78;99972.28;5011944;28;20033;-71
2022/11/09 08:32:51;;;;;;;1.75;0.45;;;;;;;16.02;80.86;99966.84;5020797;28;20037;-71
2022/11/09 08:35:20;;;;;;;0.52;0.40;;;;;;;16.29;80.14;99967.63;5015796;28;20040;-71
2022/11/09 08:37:47;;;;;;;1.17;0.50;;;;;;;16.28;80.54;99966.09;5025313;28;20448;-71
2022/11/09 08:40:34;;;;;;;1.25;0.50;;;;;;;16.42;79.78;99970.53;5018961;28;20025;-70
2022/11/09 08:43:04;;;;;;;1.83;0.80;;;;;;;16.36;80.24;99962.09;5011767;28;20042;-72
2022/11/09 08:45:35;;;;;;;1.75;0.77;;;;;;;16.33;80.42;99970.28;5014388;28;20084;-71
2022/11/09 08:48:01;;;;;;;1.70;0.77;;;;;;;16.36;80.11;99970.25;5004333;28;20046;-71
2022/11/09 08:50:29;;;;;;;0.93;0.50;;;;;;;16.33;79.95;99962.16;5020107;28;20073;-72
2022/11/09 08:52:55;;;;;;;2.78;0.80;;;;;;;16.43;79.74;99972.09;5014224;28;20124;-72
2022/11/09 08:55:20;;;;;;;0.82;0.38;;;;;;;16.37;80.32;99969.06;5009958;28;20061;-72
2022/11/09 08:57:46;;;;;;;1.50;0.63;;;;;;;16.42;79.65;99971.31;5021035;28;20056;-72
2022/11/09 09:00:12;;;;;;;0.93;0.50;;;;;;;16.43;79.64;99977.53;5020025;28;20065;-72
2022/11/09 09:02:37;;;;;;;2.90;0.60;;;;;;;16.54;79.24;99986.31;5029377;28;20036;-72
2022/11/09 09:05:03;;;;;;;2.58;0.55;;;;;;;16.60;79.59;99980.03;5024105;28;20080;-72
2022/11/09 09:07:28;;;;;;;1.30;0.80;;;;;;;16.65;79.31;99989.66;5015048;28;20041;-72
2022/11/09 09:09:54;;;;;;;3.88;0.73;;;;;;;16.52;79.59;99992.19;5012987;28;20053;-72
2022/11/09 09:12:19;;;;;;;0.70;0.60;;;;;;;16.57;79.36;99996.41;4982500;28;20061;-72
2022/11/09 09:14:45;;;;;;;3.13;0.63;;;;;;;16.53;79.94;100004.56;5003314;28;20518;-72
2022/11/09 09:17:10;;;;;;;1.83;0.77;;;;;;;16.60;79.63;100004.50;5004716;28;20094;-72
2022/11/09 09:19:35;;;;;;;3.20;0.65;;;;;;;16.73;79.12;100002.72;5015447;28;20049;-71
2022/11/09 09:22:01;;;;;;;1.02;0.55;;;;;;;16.93;78.24;100002.81;5014852;28;20156;-70
2022/11/09 09:24:27;;;;;;;1.40;0.73;;;;;;;16.93;78.33;100003.59;5015788;28;20386;-71
2022/11/09 09:26:53;;;;;;;1.23;0.60;;;;;;;16.93;78.24;100003.59;5018452;28;20110;-71
2022/11/09 09:29:18;;;;;;;1.73;0.77;;;;;;;16.95;77.79;100001.22;5022870;28;20029;-70
2022/11/09 09:31:43;;;;;;;0.70;0.50;;;;;;;16.99;77.94;100006.59;5035426;28;20498;-70
2022/11/09 09:34:10;;;;;;;1.35;0.82;;;;;;;17.00;77.74;100000.75;5020879;28;20037;-71
2022/11/09 09:36:36;;;;;;;0.70;0.47;;;;;;;16.99;77.62;100001.16;5013339;28;20038;-68
2022/11/09 09:39:01;;;;;;;2.20;0.75;;;;;;;17.22;76.88;100008.56;5014396;28;20037;-69
2022/11/09 09:41:41;;;;;;;0.65;0.50;;;;;;;17.29;76.58;100003.75;5020536;28;20037;-71
2022/11/09 09:44:28;;;;;;;3.28;0.88;;;;;;;17.45;75.66;100003.06;5017316;28;20044;-72
2022/11/09 09:47:41;;;;;;;0.35;0.30;;;;;;;17.57;75.66;100002.50;5013714;28;20018;-70
2022/11/09 09:50:14;;;;;;;2.65;0.80;;;;;;;17.88;74.30;100003.84;4995127;28;20426;-71
2022/11/09 09:52:50;;;;;;;2.80;0.40;;;;;;;17.69;73.90;100015.50;5020815;28;20108;-71
2022/11/09 09:55:28;;;;;;;0.70;0.35;;;;;;;17.97;73.30;100013.00;5022305;28;20021;-71
2022/11/09 09:58:03;;;;;;;0.30;0.20;;;;;;;18.02;73.39;100017.94;5024905;28;20393;-71
2022/11/09 10:00:30;;;;;;;1.65;0.40;;;;;;;18.11;72.21;100022.06;5023900;28;20079;-70
2022/11/09 10:02:56;;;;;;;1.67;0.60;;;;;;;17.90;71.80;100029.47;5019387;28;20061;-68
2022/11/09 10:05:28;;;;;;;0.57;0.50;;;;;;;17.81;72.58;100031.22;5024500;28;20068;-69
2022/11/09 10:08:08;;;;;;;2.17;0.65;;;;;;;17.87;71.90;100022.13;5021670;28;20040;-69
2022/11/09 10:10:36;;;;;;;3.72;0.30;;;;;;;17.81;72.24;100026.53;5018254;28;20454;-70
2022/11/09 10:13:34;;;;;;;1.60;0.60;;;;;;;17.71;72.61;100019.34;5020920;28;20047;-69
2022/11/09 10:16:32;;;;;;;2.53;0.68;;;;;;;17.96;71.48;100016.13;5020270;28;20056;-69
2022/11/09 10:19:25;;;;;;;3.10;0.73;;;;;;;18.07;71.39;100015.91;5005121;28;20056;-69
2022/11/09 10:22:11;;;;;;;4.22;0.63;;;;;;;18.16;72.06;100021.56;5022324;28;20038;-69
2022/11/09 10:24:49;;;;;;;0.95;0.52;;;;;;;18.28;71.32;100018.19;5021250;28;20038;-69
2022/11/09 10:27:26;;;;;;;1.13;0.70;;;;;;;17.97;71.57;100023.13;5017699;28;20045;-71
2022/11/09 10:29:53;;;;;;;1.23;0.50;;;;;;;18.16;70.94;100016.88;5018240;28;20034;-71
2022/11/09 10:32:21;;;;;;;3.47;0.80;;;;;;;18.16;69.84;100029.72;5024988;28;20425;-71
2022/11/09 10:34:52;;;;;;;1.45;0.70;;;;;;;18.18;69.78;100021.91;5018900;28;20041;-71
2022/11/09 10:37:27;;;;;;;;;;;;;;;18.20;69.52;100031.19;5021934;28;20034;-69
2022/11/09 10:40:31;;;;;;;1.38;0.93;;;;;;;18.29;69.72;100017.00;5021141;28;20373;-69
2022/11/09 10:43:16;;;;;;;3.58;0.90;;;;;;;18.23;68.80;100007.78;5024025;28;20044;-69
2022/11/09 10:46:04;;;;;;;2.70;0.73;;;;;;;18.22;69.41;100006.25;5017818;28;20064;-68
2022/11/09 10:48:48;;;;;;;1.45;0.60;;;;;;;18.31;68.86;100007.19;5017014;28;20044;-69
2022/11/09 10:51:41;;;;;;;2.58;0.60;;;;;;;18.44;68.32;100007.34;5014298;28;20060;-68
2022/11/09 10:54:36;;;;;;;0.50;0.50;;;;;;;18.63;67.92;100004.56;5022355;28;20126;-68
2022/11/09 10:57:22;;;;;;;1.63;0.77;;;;;;;18.68;67.27;99998.59;5019785;28;20059;-68
2022/11/09 11:00:18;;;;;;;2.00;0.52;;;;;;;18.32;66.85;100014.19;5023780;28;20417;-70
2022/11/09 11:03:18;;;;;;;1.67;0.70;;;;;;;18.51;67.19;100002.50;5020709;28;20092;-69
2022/11/09 11:06:19;;;;;;;3.17;0.73;;;;;;;18.66;67.07;100006.44;5019244;28;20123;-68
2022/11/09 11:09:06;;;;;;;3.35;0.70;;;;;;;18.54;65.37;99998.91;5020999;28;20069;-69
2022/11/09 11:12:14;;;;;;;4.05;0.45;;;;;;;18.33;65.41;100002.09;5020662;28;20091;-69
2022/11/09 11:14:58;;;;;;;5.43;0.93;;;;;;;18.35;64.49;100015.31;5015543;28;20413;-70
2022/11/09 11:17:43;;;;;;;3.33;0.88;;;;;;;18.03;65.38;100005.88;5026313;28;20059;-70
2022/11/09 11:20:33;;;;;;;0.60;0.43;;;;;;;18.15;64.77;99995.50;5024682;28;20456;-70
2022/11/09 11:23:20;;;;;;;2.22;1.08;;;;;;;18.16;65.85;99995.06;5019540;28;20056;-69
2022/11/09 11:26:22;;;;;;;0.65;0.40;;;;;;;18.16;65.02;99999.75;5020332;28;20060;-68
2022/11/09 11:29:34;;;;;;;1.58;0.65;;;;;;;18.14;64.51;100007.59;5012742;28;20367;-69
2022/11/09 11:32:19;;;;;;;0.80;0.70;;;;;;;18.15;64.20;100006.41;5025350;28;20092;-69
2022/11/09 11:35:24;;;;;;;0.95;0.50;;;;;;;18.31;63.61;100018.09;5017972;28;20185;-69
2022/11/09 11:38:33;;;;;;;0.68;0.60;;;;;;;18.35;63.84;100012.59;5023362;28;20100;-72
2022/11/09 11:41:23;;;;;;;1.75;0.70;;;;;;;18.28;63.57;100010.00;5016366;28;20068;-69
2022/11/09 11:44:32;;;;;;;0.70;0.70;;;;;;;18.43;63.46;100011.25;5020059;28;20069;-69
2022/11/09 11:47:59;;;;;;;0.80;0.68;;;;;;;18.24;63.32;100007.34;5016923;28;20061;-69
2022/11/09 11:51:21;;;;;;;1.00;0.60;;;;;;;18.21;62.89;100012.91;5017522;28;20402;-69